Time;durP1;ratioP1;P1;durP2;ratioP2;P2;SDS_P1;SDS_P2;PMS_P1;PMS_P2;Temp;Humidity;BMP_temperature;BMP_pressure;BME280_temperature;BME280_humidity;BME280_pressure;Samples;Min_cycle;Max_cycle;Signal;HPM_P1;HPM_P2
2023/07/06 00:00:53;;;;;;;11.65;7.35;;;14.00;99.90;;;;;;5035812;28;20560;-76
2023/07/06 00:03:19;;;;;;;12.73;7.28;;;14.00;99.90;;;;;;5051832;28;20057;-76
2023/07/06 00:05:45;;;;;;;11.85;7.03;;;14.00;99.90;;;;;;5036471;28;20025;-76
2023/07/06 00:08:16;;;;;;;12.75;6.80;;;14.00;99.90;;;;;;5056826;28;20090;-75
2023/07/06 00:10:46;;;;;;;12.95;7.63;;;14.00;99.90;;;;;;5055717;28;20115;-76
2023/07/06 00:13:12;;;;;;;13.50;7.55;;;14.00;99.90;;;;;;5055655;28;20037;-76
2023/07/06 00:15:42;;;;;;;14.75;8.05;;;14.00;99.90;;;;;;5056741;28;20410;-76
2023/07/06 00:18:09;;;;;;;11.68;8.13;;;13.90;99.90;;;;;;5056615;28;20065;-76
2023/07/06 00:20:37;;;;;;;14.23;6.90;;;13.90;99.90;;;;;;5055635;28;20431;-76
2023/07/06 00:23:04;;;;;;;12.30;6.72;;;14.00;99.90;;;;;;5056762;28;20071;-76
2023/07/06 00:25:30;;;;;;;12.85;8.07;;;14.00;99.90;;;;;;5038978;28;20029;-76
2023/07/06 00:27:58;;;;;;;13.30;7.63;;;14.00;99.90;;;;;;5022173;28;20032;-75
2023/07/06 00:31:20;;;;;;;15.57;7.95;;;14.00;99.90;;;;;;5055395;28;20029;-75
2023/07/06 00:33:11;;;;;;;14.00;7.80;;;14.00;99.90;;;;;;5055187;28;20032;-76
2023/07/06 00:35:39;;;;;;;13.52;8.43;;;14.00;99.90;;;;;;5056202;28;20372;-75
2023/07/06 00:38:09;;;;;;;12.98;7.85;;;14.10;99.90;;;;;;5056444;28;20087;-76
2023/07/06 00:40:39;;;;;;;18.00;8.70;;;14.10;99.90;;;;;;5055111;28;20036;-76
2023/07/06 00:43:06;;;;;;;15.35;8.05;;;14.10;99.90;;;;;;5055091;28;20024;-76
2023/07/06 00:45:33;;;;;;;16.83;8.85;;;14.10;99.90;;;;;;5055709;28;20055;-76
2023/07/06 00:47:59;;;;;;;14.88;8.05;;;14.10;99.90;;;;;;5056298;28;20017;-76
2023/07/06 00:50:28;;;;;;;14.77;8.40;;;14.10;99.90;;;;;;5054977;28;20414;-76
2023/07/06 00:53:06;;;;;;;12.13;7.32;;;14.10;99.90;;;;;;5055240;28;20492;-76
2023/07/06 00:55:42;;;;;;;14.00;8.77;;;14.10;99.90;;;;;;5056246;28;20029;-76
2023/07/06 00:58:31;;;;;;;11.45;7.50;;;14.10;99.90;;;;;;5054864;28;20032;-76
2023/07/06 01:01:01;;;;;;;14.30;8.82;;;14.20;99.90;;;;;;5055910;28;20033;-76
2023/07/06 01:03:27;;;;;;;14.25;8.02;;;14.20;99.90;;;;;;5054745;28;20029;-76
2023/07/06 01:05:58;;;;;;;14.18;7.32;;;14.20;99.90;;;;;;5036569;28;20025;-76
2023/07/06 01:08:25;;;;;;;14.15;8.10;;;14.20;99.90;;;;;;5053028;28;20021;-76
2023/07/06 01:10:54;;;;;;;15.48;8.70;;;14.20;99.90;;;;;;5052604;28;20060;-76
2023/07/06 01:13:24;;;;;;;13.60;8.45;;;14.20;99.90;;;;;;5037810;28;20056;-76
2023/07/06 01:15:57;;;;;;;14.55;7.80;;;14.20;99.90;;;;;;5054887;28;20060;-76
2023/07/06 01:18:52;;;;;;;15.95;7.95;;;14.20;99.90;;;;;;5054174;28;20370;-77
2023/07/06 01:21:49;;;;;;;14.60;7.75;;;14.20;99.90;;;;;;5054191;28;20025;-76
2023/07/06 01:24:33;;;;;;;12.43;8.30;;;14.10;99.90;;;;;;5053802;28;20071;-76
2023/07/06 01:27:17;;;;;;;;;;;14.10;99.90;;;;;;5054769;28;20029;-76
2023/07/06 01:30:00;;;;;;;13.00;7.32;;;14.10;99.90;;;;;;5055499;28;19905;-76
2023/07/06 01:32:32;;;;;;;16.80;8.57;;;14.00;99.90;;;;;;5054067;28;20083;-76
2023/07/06 01:35:10;;;;;;;13.07;7.32;;;14.00;99.90;;;;;;5053685;28;20120;-76
2023/07/06 01:37:42;;;;;;;18.17;9.13;;;14.00;99.90;;;;;;5055573;28;20033;-76
2023/07/06 01:40:11;;;;;;;16.45;8.68;;;14.00;99.90;;;;;;5054216;28;20083;-76
2023/07/06 01:42:40;;;;;;;16.15;9.00;;;13.90;99.90;;;;;;5054681;28;20055;-76
2023/07/06 01:45:18;;;;;;;20.85;10.48;;;13.90;99.90;;;;;;5054984;28;20025;-76
2023/07/06 01:47:55;;;;;;;15.43;9.20;;;13.90;99.90;;;;;;5055147;28;20492;-76
2023/07/06 01:50:30;;;;;;;17.40;9.13;;;13.90;99.90;;;;;;5054829;28;20021;-75
2023/07/06 01:53:18;;;;;;;13.52;8.65;;;13.90;99.90;;;;;;5054802;28;20108;-76
2023/07/06 01:55:50;;;;;;;15.27;9.23;;;13.90;99.90;;;;;;5054877;28;20071;-75
2023/07/06 01:58:43;;;;;;;17.05;9.77;;;13.80;99.90;;;;;;5053502;28;20036;-76
2023/07/06 02:01:15;;;;;;;14.57;9.77;;;13.80;99.90;;;;;;5055051;28;20051;-75
2023/07/06 02:03:41;;;;;;;19.67;10.77;;;13.80;99.90;;;;;;5054527;28;20075;-77
2023/07/06 02:06:10;;;;;;;14.75;9.75;;;13.80;99.90;;;;;;5037037;28;20079;-76
2023/07/06 02:08:41;;;;;;;13.05;8.55;;;13.70;99.90;;;;;;5053437;28;20029;-77
2023/07/06 02:11:08;;;;;;;15.15;10.10;;;13.70;99.90;;;;;;5053688;28;20060;-77
2023/07/06 02:13:34;;;;;;;17.15;10.02;;;13.80;99.90;;;;;;5050881;28;20041;-77
2023/07/06 02:16:00;;;;;;;17.77;10.15;;;13.80;99.90;;;;;;5054586;28;20052;-76
2023/07/06 02:18:27;;;;;;;15.90;10.18;;;13.80;99.90;;;;;;5036324;28;20477;-76
2023/07/06 02:20:57;;;;;;;15.32;9.77;;;13.80;99.90;;;;;;5053959;28;20025;-76
2023/07/06 02:23:23;;;;;;;14.88;9.85;;;13.80;99.90;;;;;;5020674;28;20096;-76
2023/07/06 02:25:49;;;;;;;14.75;8.45;;;13.90;99.90;;;;;;5053413;28;20116;-75
2023/07/06 02:28:15;;;;;;;16.98;9.50;;;13.80;99.90;;;;;;5053842;28;20080;-76
2023/07/06 02:30:40;;;;;;;15.43;9.32;;;13.90;99.90;;;;;;5036570;28;20025;-76
2023/07/06 02:33:07;;;;;;;12.93;8.15;;;13.90;99.90;;;;;;5053058;28;20098;-76
2023/07/06 02:35:33;;;;;;;12.93;8.52;;;13.90;99.90;;;;;;5053338;28;20120;-76
2023/07/06 02:38:00;;;;;;;12.25;7.75;;;13.90;99.90;;;;;;5054380;28;20151;-76
2023/07/06 02:40:26;;;;;;;12.00;8.73;;;13.90;99.90;;;;;;5052901;28;20094;-76
2023/07/06 02:42:51;;;;;;;17.58;9.07;;;13.90;99.90;;;;;;5054368;28;20508;-76
2023/07/06 02:45:17;;;;;;;14.52;8.27;;;13.90;99.90;;;;;;5036153;28;20033;-76
2023/07/06 02:47:43;;;;;;;17.05;7.88;;;14.00;99.90;;;;;;5053245;28;20028;-76
2023/07/06 02:50:11;;;;;;;11.23;6.88;;;13.90;99.90;;;;;;5053913;28;20144;-75
2023/07/06 02:52:37;;;;;;;16.45;7.70;;;13.90;99.90;;;;;;5053797;28;20036;-75
2023/07/06 02:55:04;;;;;;;11.68;7.40;;;13.90;99.90;;;;;;5053786;28;20540;-78
2023/07/06 02:57:31;;;;;;;16.50;7.55;;;13.90;99.90;;;;;;5019790;28;20025;-77
2023/07/06 02:59:57;;;;;;;15.88;8.00;;;13.90;99.90;;;;;;5052315;28;20048;-77
2023/07/06 03:02:23;;;;;;;13.85;6.97;;;13.90;99.90;;;;;;5053530;28;20486;-75
2023/07/06 03:04:49;;;;;;;13.15;7.60;;;13.90;99.90;;;;;;5053709;28;20032;-75
2023/07/06 03:07:15;;;;;;;13.85;7.18;;;13.90;99.90;;;;;;5019778;28;20043;-75
2023/07/06 03:09:42;;;;;;;11.35;7.47;;;13.90;99.90;;;;;;5053838;28;20119;-75
2023/07/06 03:12:09;;;;;;;11.70;6.80;;;13.90;99.90;;;;;;5052476;28;20086;-76
2023/07/06 03:14:34;;;;;;;11.73;7.22;;;13.90;99.90;;;;;;5053649;28;20052;-76
2023/07/06 03:17:00;;;;;;;12.70;7.78;;;13.90;99.90;;;;;;5052532;28;20033;-76
2023/07/06 03:19:26;;;;;;;10.82;6.75;;;13.90;99.90;;;;;;5052337;28;20048;-76
2023/07/06 03:21:52;;;;;;;10.85;6.53;;;13.80;99.90;;;;;;5035902;28;20448;-76
2023/07/06 03:24:18;;;;;;;12.80;6.72;;;13.80;99.90;;;;;;5052588;28;20025;-75
2023/07/06 03:26:44;;;;;;;15.05;6.90;;;13.80;99.90;;;;;;5035771;28;20435;-76
2023/07/06 03:29:12;;;;;;;12.65;5.95;;;13.80;99.90;;;;;;5035596;28;20029;-75
2023/07/06 03:31:37;;;;;;;11.38;6.30;;;13.80;99.90;;;;;;5052121;28;20021;-76
2023/07/06 03:34:07;;;;;;;16.15;6.97;;;13.80;99.90;;;;;;5053210;28;20141;-76
2023/07/06 03:36:34;;;;;;;11.88;6.10;;;13.80;99.90;;;;;;5053350;28;20025;-76
2023/07/06 03:39:01;;;;;;;15.18;6.78;;;13.80;99.90;;;;;;5052042;28;20476;-75
2023/07/06 03:41:26;;;;;;;10.65;5.88;;;13.80;99.90;;;;;;5053244;28;20029;-76
2023/07/06 03:43:56;;;;;;;11.52;5.82;;;13.80;99.90;;;;;;5052882;28;20035;-76
2023/07/06 03:46:33;;;;;;;12.95;6.57;;;13.80;99.90;;;;;;5053413;28;20527;-75
2023/07/06 03:49:04;;;;;;;13.60;6.50;;;13.80;99.90;;;;;;5053126;28;20432;-75
2023/07/06 03:51:30;;;;;;;14.40;5.70;;;13.80;99.90;;;;;;5052040;28;20033;-76
2023/07/06 03:53:57;;;;;;;11.35;5.22;;;13.80;99.90;;;;;;5052822;28;20044;-76
2023/07/06 03:56:27;;;;;;;10.02;5.65;;;13.80;99.90;;;;;;5051850;28;20033;-76
2023/07/06 03:59:02;;;;;;;10.60;5.22;;;13.80;99.90;;;;;;5052145;28;20045;-75
2023/07/06 04:01:31;;;;;;;13.70;5.43;;;13.80;99.90;;;;;;5051909;28;20487;-75
2023/07/06 04:03:57;;;;;;;12.77;5.13;;;13.80;99.90;;;;;;5053291;28;20025;-75
2023/07/06 04:06:27;;;;;;;9.80;5.20;;;13.80;99.90;;;;;;5053362;28;20029;-76
2023/07/06 04:08:56;;;;;;;10.15;5.45;;;13.80;99.90;;;;;;5052949;28;20516;-76
2023/07/06 04:11:22;;;;;;;14.43;4.90;;;13.90;99.90;;;;;;5051685;28;20057;-75
2023/07/06 04:13:48;;;;;;;11.73;5.95;;;13.80;99.90;;;;;;5052840;28;20084;-75
2023/07/06 04:16:17;;;;;;;10.02;4.20;;;13.80;99.90;;;;;;5053045;28;20017;-75
2023/07/06 04:18:44;;;;;;;10.02;5.38;;;13.90;99.90;;;;;;5051863;28;20032;-76
2023/07/06 04:21:18;;;;;;;10.15;4.90;;;13.90;99.90;;;;;;5051606;28;20111;-76
2023/07/06 04:23:47;;;;;;;11.00;4.50;;;13.90;99.90;;;;;;5051347;28;20060;-76
2023/07/06 04:26:17;;;;;;;9.48;4.88;;;13.90;99.90;;;;;;5035521;28;20025;-75
2023/07/06 04:28:43;;;;;;;11.07;4.88;;;13.90;99.90;;;;;;5051614;28;20033;-75
2023/07/06 04:31:10;;;;;;;8.57;4.07;;;13.90;99.90;;;;;;5052844;28;20036;-75
2023/07/06 04:33:36;;;;;;;12.77;5.28;;;13.90;99.90;;;;;;5051404;28;20035;-75
2023/07/06 04:36:02;;;;;;;12.82;4.57;;;13.90;99.90;;;;;;5051482;28;20037;-75
2023/07/06 04:38:29;;;;;;;13.15;4.65;;;13.90;99.90;;;;;;5052675;28;20031;-76
2023/07/06 04:40:56;;;;;;;13.65;4.60;;;14.00;99.90;;;;;;5051523;28;20419;-82
2023/07/06 04:43:22;;;;;;;9.35;4.40;;;13.90;99.90;;;;;;5048217;28;20030;-81
2023/07/06 04:45:48;;;;;;;10.90;4.25;;;14.00;99.90;;;;;;5052739;28;20025;-83
2023/07/06 04:48:16;;;;;;;10.50;4.03;;;14.00;99.90;;;;;;5052307;28;20036;-81
2023/07/06 04:50:43;;;;;;;11.25;4.95;;;14.00;99.90;;;;;;5052602;28;20029;-81
2023/07/06 04:53:09;;;;;;;10.38;4.10;;;14.10;99.90;;;;;;5055543;28;20025;-80
2023/07/06 04:55:35;;;;;;;15.15;4.97;;;14.10;99.90;;;;;;5038049;28;20037;-82
2023/07/06 04:58:01;;;;;;;12.57;4.85;;;14.10;99.90;;;;;;5056107;28;20029;-83
2023/07/06 05:00:29;;;;;;;10.52;4.07;;;14.10;99.90;;;;;;5054168;28;20021;-81
2023/07/06 05:02:58;;;;;;;13.43;4.93;;;14.20;99.90;;;;;;5055889;28;20025;-82
2023/07/06 05:05:26;;;;;;;8.88;4.68;;;14.20;99.90;;;;;;5053941;28;20017;-81
2023/07/06 05:07:53;;;;;;;12.23;4.38;;;14.20;99.90;;;;;;5054624;28;20025;-81
2023/07/06 05:10:19;;;;;;;10.68;4.53;;;14.20;99.90;;;;;;5054692;28;20377;-83
2023/07/06 05:12:45;;;;;;;12.23;3.85;;;14.20;99.90;;;;;;5054412;28;20116;-81
2023/07/06 05:15:12;;;;;;;20.55;5.25;;;14.20;99.90;;;;;;5055203;28;20132;-81
2023/07/06 05:17:39;;;;;;;18.80;4.70;;;14.30;99.90;;;;;;5054493;28;20025;-81
2023/07/06 05:20:10;;;;;;;11.95;5.03;;;14.30;99.90;;;;;;5053881;28;20024;-81
2023/07/06 05:22:39;;;;;;;9.60;4.00;;;14.30;99.90;;;;;;5022401;28;20071;-81
2023/07/06 05:25:06;;;;;;;15.45;5.05;;;14.30;99.90;;;;;;5055840;28;20033;-82
2023/07/06 05:27:33;;;;;;;12.63;4.68;;;14.40;99.90;;;;;;5053818;28;20033;-81
2023/07/06 05:29:58;;;;;;;12.27;4.70;;;14.40;99.90;;;;;;5051567;28;20030;-81
2023/07/06 05:32:24;;;;;;;12.40;5.05;;;14.40;99.90;;;;;;5043288;28;20103;-81
2023/07/06 05:34:50;;;;;;;11.20;5.38;;;14.40;99.90;;;;;;5041163;28;20021;-81
2023/07/06 05:37:15;;;;;;;12.88;5.03;;;14.50;99.90;;;;;;5044053;28;20432;-82
2023/07/06 05:39:41;;;;;;;10.82;5.03;;;14.50;99.90;;;;;;5044062;28;20433;-82
2023/07/06 05:42:07;;;;;;;16.17;5.60;;;14.60;99.90;;;;;;5042647;28;20021;-82
2023/07/06 05:44:32;;;;;;;13.43;4.95;;;14.70;99.90;;;;;;5044228;28;20427;-82
2023/07/06 05:46:58;;;;;;;13.48;5.80;;;14.70;99.90;;;;;;5028725;28;20115;-80
2023/07/06 05:49:23;;;;;;;13.32;6.13;;;14.70;99.90;;;;;;5053494;28;20114;-82
2023/07/06 05:51:49;;;;;;;16.23;6.00;;;14.70;99.90;;;;;;5047499;28;20495;-82
2023/07/06 05:54:14;;;;;;;12.48;5.95;;;14.80;99.90;;;;;;5049099;28;20045;-81
2023/07/06 05:56:41;;;;;;;20.92;6.30;;;14.90;99.90;;;;;;5049262;28;20021;-81
2023/07/06 05:59:08;;;;;;;16.77;6.40;;;14.80;99.90;;;;;;5035112;28;20433;-82
2023/07/06 06:01:34;;;;;;;16.40;6.90;;;14.90;99.90;;;;;;5030846;28;20049;-81
2023/07/06 06:04:01;;;;;;;18.83;7.20;;;14.90;99.90;;;;;;5033099;28;20490;-82
2023/07/06 06:06:27;;;;;;;16.77;6.65;;;14.90;99.90;;;;;;5034959;28;20025;-82
2023/07/06 06:08:54;;;;;;;16.70;6.78;;;15.00;99.90;;;;;;5043435;28;20113;-81
2023/07/06 06:11:21;;;;;;;16.20;6.47;;;14.90;99.90;;;;;;5053380;28;20094;-80
2023/07/06 06:13:47;;;;;;;18.80;7.57;;;15.00;99.90;;;;;;5049325;28;20029;-80
2023/07/06 06:16:13;;;;;;;15.73;6.95;;;15.00;99.90;;;;;;5034630;28;20040;-81
2023/07/06 06:18:39;;;;;;;23.08;8.00;;;14.90;99.90;;;;;;5033305;28;20018;-81
2023/07/06 06:21:08;;;;;;;19.42;8.13;;;15.00;99.90;;;;;;5031118;28;20018;-81
2023/07/06 06:23:34;;;;;;;17.10;7.50;;;14.90;99.90;;;;;;5033323;28;20620;-79
2023/07/06 06:26:00;;;;;;;16.70;7.43;;;15.00;99.90;;;;;;5031895;28;20087;-81
2023/07/06 06:28:26;;;;;;;17.27;7.45;;;15.00;99.90;;;;;;5015589;28;20415;-81
2023/07/06 06:30:53;;;;;;;17.50;8.50;;;15.10;99.90;;;;;;5033149;28;20034;-80
2023/07/06 06:33:18;;;;;;;16.50;8.30;;;15.10;99.90;;;;;;5032132;28;20025;-81
2023/07/06 06:35:44;;;;;;;15.02;7.60;;;15.20;99.90;;;;;;5034234;28;20032;-78
2023/07/06 06:38:10;;;;;;;16.58;7.72;;;15.30;99.90;;;;;;5016842;28;20406;-79
2023/07/06 06:40:36;;;;;;;17.73;8.85;;;15.30;99.90;;;;;;5032958;28;20425;-77
2023/07/06 06:43:03;;;;;;;17.92;7.85;;;15.40;99.90;;;;;;5032970;28;20034;-78
2023/07/06 06:45:29;;;;;;;16.88;9.43;;;15.50;99.90;;;;;;5032907;28;20466;-78
2023/07/06 06:47:55;;;;;;;15.43;8.75;;;15.60;99.90;;;;;;5033061;28;20033;-78
2023/07/06 06:50:21;;;;;;;17.58;9.38;;;15.60;99.90;;;;;;5034585;28;20492;-79
2023/07/06 06:52:48;;;;;;;22.05;10.55;;;15.70;99.90;;;;;;5016388;28;20108;-79
2023/07/06 06:55:14;;;;;;;15.55;8.52;;;15.70;99.90;;;;;;5033615;28;20047;-79
2023/07/06 06:57:40;;;;;;;18.00;9.48;;;15.80;99.90;;;;;;5033877;28;20027;-80
2023/07/06 07:00:14;;;;;;;24.00;9.35;;;15.90;99.90;;;;;;5032718;28;20025;-80
2023/07/06 07:02:40;;;;;;;21.55;9.65;;;15.90;99.90;;;;;;5033881;28;20481;-79
2023/07/06 07:05:06;;;;;;;17.48;9.63;;;16.00;99.90;;;;;;5032584;28;20029;-80
2023/07/06 07:07:37;;;;;;;21.13;10.90;;;16.10;99.90;;;;;;5033770;28;20394;-78
2023/07/06 07:10:03;;;;;;;20.67;10.85;;;16.20;99.90;;;;;;5032538;28;20057;-79
2023/07/06 07:12:29;;;;;;;16.98;10.82;;;16.30;99.90;;;;;;5016059;28;20064;-80
2023/07/06 07:14:56;;;;;;;20.65;11.10;;;16.30;99.90;;;;;;5015825;28;20037;-79
2023/07/06 07:17:21;;;;;;;22.10;11.43;;;16.40;99.90;;;;;;5032768;28;20037;-79
2023/07/06 07:19:47;;;;;;;19.52;11.57;;;16.50;99.90;;;;;;5033761;28;20038;-79
2023/07/06 07:22:12;;;;;;;20.83;11.00;;;16.50;99.90;;;;;;5032334;28;20088;-79
2023/07/06 07:24:38;;;;;;;24.25;12.45;;;16.60;99.90;;;;;;5032196;28;20032;-76
2023/07/06 07:27:04;;;;;;;19.30;11.35;;;16.60;99.90;;;;;;5033798;28;20029;-76
2023/07/06 07:29:30;;;;;;;18.95;11.93;;;16.70;99.90;;;;;;5032300;28;20116;-75
2023/07/06 07:31:56;;;;;;;20.35;12.07;;;16.70;99.90;;;;;;5031998;28;20113;-76
2023/07/06 07:34:21;;;;;;;20.33;12.82;;;16.80;99.90;;;;;;5032230;28;20033;-76
2023/07/06 07:36:47;;;;;;;17.48;11.20;;;16.80;99.90;;;;;;5033315;28;20079;-76
2023/07/06 07:39:16;;;;;;;22.92;11.70;;;16.90;99.90;;;;;;5032154;28;20367;-76
2023/07/06 07:41:45;;;;;;;19.90;12.23;;;16.90;99.90;;;;;;5016319;28;20076;-75
2023/07/06 07:44:11;;;;;;;20.80;12.52;;;17.00;99.90;;;;;;5032169;28;20034;-76
2023/07/06 07:46:37;;;;;;;17.23;10.88;;;17.00;99.90;;;;;;5032355;28;20555;-76
2023/07/06 07:49:02;;;;;;;22.05;12.90;;;17.00;99.90;;;;;;5015589;28;20535;-75
2023/07/06 07:51:29;;;;;;;23.30;12.23;;;17.10;99.90;;;;;;5015511;28;20084;-76
2023/07/06 07:53:56;;;;;;;16.67;12.15;;;17.10;99.90;;;;;;5031672;28;20069;-75
2023/07/06 07:56:24;;;;;;;18.67;11.05;;;17.20;99.90;;;;;;5033118;28;20030;-76
2023/07/06 07:58:50;;;;;;;22.10;13.45;;;17.30;99.90;;;;;;5033138;28;20026;-76
2023/07/06 08:01:20;;;;;;;18.98;12.00;;;17.30;99.90;;;;;;5033078;28;20485;-75
2023/07/06 08:03:46;;;;;;;19.27;12.02;;;17.30;99.90;;;;;;5031802;28;20137;-77
2023/07/06 08:06:14;;;;;;;17.75;11.70;;;17.30;99.90;;;;;;5031897;28;20049;-75
2023/07/06 08:08:44;;;;;;;22.13;11.52;;;17.30;99.90;;;;;;5033021;28;20109;-76
2023/07/06 08:11:20;;;;;;;18.63;11.00;;;17.40;99.90;;;;;;5031679;28;20021;-76
2023/07/06 08:13:50;;;;;;;19.52;10.52;;;17.50;99.90;;;;;;5031667;28;20470;-75
2023/07/06 08:16:16;;;;;;;18.02;11.23;;;17.50;99.90;;;;;;5032907;28;20060;-75
2023/07/06 08:18:43;;;;;;;15.95;9.95;;;17.60;99.90;;;;;;5031652;28;20495;-76
2023/07/06 08:21:10;;;;;;;16.23;10.82;;;17.70;99.90;;;;;;5015360;28;20366;-75
2023/07/06 08:23:40;;;;;;;16.77;10.75;;;17.80;99.90;;;;;;5031630;28;20033;-75
2023/07/06 08:26:08;;;;;;;15.68;9.90;;;17.90;99.90;;;;;;5033066;28;20034;-77
2023/07/06 08:28:34;;;;;;;20.33;10.90;;;17.90;99.90;;;;;;5037016;28;20034;-75
2023/07/06 08:31:02;;;;;;;18.13;11.95;;;18.00;99.90;;;;;;5035392;28;20026;-76
2023/07/06 08:33:35;;;;;;;19.13;11.20;;;18.10;99.90;;;;;;5019256;28;20029;-76
2023/07/06 08:36:04;;;;;;;15.07;10.83;;;18.20;99.90;;;;;;5036649;28;20017;-75
2023/07/06 08:38:31;;;;;;;19.77;12.23;;;18.20;99.90;;;;;;5036700;28;20024;-76
2023/07/06 08:40:59;;;;;;;20.77;11.52;;;18.30;99.90;;;;;;5036503;28;20025;-77
2023/07/06 08:43:26;;;;;;;18.15;11.60;;;18.30;99.90;;;;;;5036376;28;20044;-76
2023/07/06 08:46:00;;;;;;;17.58;11.38;;;18.40;99.90;;;;;;5034949;28;20358;-76
2023/07/06 08:48:28;;;;;;;16.00;10.23;;;18.50;99.90;;;;;;5037593;28;20042;-76
2023/07/06 08:51:19;;;;;;;16.42;10.32;;;18.50;99.90;;;;;;5036181;28;20028;-75
2023/07/06 08:54:00;;;;;;;17.15;9.88;;;18.60;99.80;;;;;;5036246;28;20045;-76
2023/07/06 08:56:28;;;;;;;15.60;9.80;;;18.60;99.50;;;;;;5034888;28;20052;-76
2023/07/06 08:58:57;;;;;;;16.27;9.20;;;18.70;99.30;;;;;;5036067;28;20072;-76
2023/07/06 09:01:24;;;;;;;14.00;8.82;;;18.80;99.00;;;;;;5036382;28;20076;-76
2023/07/06 09:04:00;;;;;;;17.88;9.40;;;18.80;98.70;;;;;;5034755;28;20036;-76
2023/07/06 09:06:28;;;;;;;15.13;8.73;;;18.90;98.50;;;;;;5054249;28;20131;-77
2023/07/06 09:09:03;;;;;;;11.43;7.75;;;19.00;98.40;;;;;;5054068;28;20032;-76
2023/07/06 09:11:33;;;;;;;13.13;7.43;;;19.00;97.90;;;;;;5037981;28;20079;-76
2023/07/06 09:14:05;;;;;;;18.10;8.25;;;19.10;97.60;;;;;;5055980;28;20048;-76
2023/07/06 09:16:35;;;;;;;12.50;7.57;;;19.10;97.30;;;;;;5054526;28;20024;-76
2023/07/06 09:19:08;;;;;;;15.45;8.20;;;19.20;96.80;;;;;;5054417;28;20051;-76
2023/07/06 09:21:34;;;;;;;13.65;7.55;;;19.20;96.50;;;;;;5055704;28;20030;-77
2023/07/06 09:24:00;;;;;;;14.60;7.80;;;19.20;96.30;;;;;;5054291;28;20079;-77
2023/07/06 09:26:36;;;;;;;12.95;6.93;;;19.20;96.20;;;;;;5037972;28;20381;-76
2023/07/06 09:29:25;;;;;;;11.60;6.70;;;19.20;96.00;;;;;;5054357;28;20032;-76
2023/07/06 09:32:14;;;;;;;13.00;7.00;;;19.20;95.80;;;;;;5054266;28;20021;-77
2023/07/06 09:34:45;;;;;;;13.68;7.43;;;19.30;95.60;;;;;;5055670;28;20028;-76
2023/07/06 09:37:20;;;;;;;13.63;6.85;;;19.30;95.30;;;;;;5055504;28;20519;-76
2023/07/06 09:40:03;;;;;;;11.60;6.90;;;19.30;95.10;;;;;;5054172;28;20021;-76
2023/07/06 09:42:31;;;;;;;10.63;6.07;;;19.30;95.00;;;;;;5055383;28;20035;-76
2023/07/06 09:44:58;;;;;;;11.15;6.53;;;19.30;94.80;;;;;;5055408;28;20044;-77
2023/07/06 09:47:24;;;;;;;10.32;6.20;;;19.40;94.70;;;;;;5055352;28;20028;-77
2023/07/06 09:49:55;;;;;;;12.02;6.07;;;19.40;94.60;;;;;;5055301;28;20575;-77
2023/07/06 09:52:22;;;;;;;10.63;6.03;;;19.50;94.50;;;;;;5053844;28;20075;-76
2023/07/06 09:55:10;;;;;;;12.68;5.78;;;19.60;94.30;;;;;;5053599;28;20511;-76
2023/07/06 09:57:35;;;;;;;10.98;5.93;;;19.70;93.80;;;;;;5054842;28;20035;-77
2023/07/06 10:00:03;;;;;;;11.75;5.15;;;19.80;93.50;;;;;;5053634;28;20490;-76
2023/07/06 10:02:40;;;;;;;7.45;4.22;;;19.80;93.00;;;;;;5053682;28;20420;-77
2023/07/06 10:05:26;;;;;;;13.02;5.35;;;19.90;92.60;;;;;;5054701;28;20409;-77
2023/07/06 10:08:11;;;;;;;8.68;4.82;;;19.90;92.30;;;;;;5054818;28;20495;-76
2023/07/06 10:11:06;;;;;;;7.95;4.80;;;20.00;91.90;;;;;;5053456;28;20036;-77
2023/07/06 10:13:40;;;;;;;8.93;5.13;;;20.10;91.90;;;;;;5054600;28;20103;-77
2023/07/06 10:16:09;;;;;;;13.32;5.47;;;20.20;91.60;;;;;;5053325;28;20385;-77
2023/07/06 10:18:45;;;;;;;7.88;4.85;;;20.20;91.30;;;;;;5053266;28;20358;-77
2023/07/06 10:21:23;;;;;;;11.38;5.20;;;20.30;91.00;;;;;;5053330;28;20021;-76
2023/07/06 10:24:12;;;;;;;9.10;4.25;;;20.40;90.80;;;;;;5054430;28;20037;-77
2023/07/06 10:26:47;;;;;;;7.63;4.85;;;20.50;90.60;;;;;;5054652;28;20029;-77
2023/07/06 10:29:34;;;;;;;9.43;4.72;;;20.60;90.30;;;;;;5054449;28;20029;-76
2023/07/06 10:32:17;;;;;;;9.07;4.22;;;20.70;90.10;;;;;;5054338;28;20082;-78
2023/07/06 10:34:55;;;;;;;9.98;3.90;;;20.80;89.60;;;;;;5054322;28;20036;-76
2023/07/06 10:37:24;;;;;;;9.00;4.70;;;21.00;89.00;;;;;;5052984;28;20013;-77
2023/07/06 10:40:00;;;;;;;10.85;4.78;;;21.10;88.00;;;;;;5052943;28;20033;-77
2023/07/06 10:42:31;;;;;;;11.23;4.15;;;21.20;86.90;;;;;;5052876;28;20021;-77
2023/07/06 10:45:02;;;;;;;7.32;3.63;;;21.40;86.10;;;;;;5054036;28;20031;-78
2023/07/06 10:47:44;;;;;;;10.07;3.50;;;21.50;86.00;;;;;;5053223;28;20036;-76
2023/07/06 10:50:30;;;;;;;8.95;4.07;;;21.70;84.30;;;;;;5051950;28;20029;-77
2023/07/06 10:53:01;;;;;;;9.52;3.83;;;21.80;83.40;;;;;;5052631;28;20021;-79
2023/07/06 10:55:34;;;;;;;7.60;4.05;;;22.00;82.90;;;;;;5053669;28;20160;-78
2023/07/06 10:58:25;;;;;;;8.52;2.92;;;22.20;82.10;;;;;;5052670;28;20039;-76
2023/07/06 11:00:52;;;;;;;7.13;2.83;;;22.40;80.90;;;;;;5049735;28;20037;-76
2023/07/06 11:03:27;;;;;;;9.32;3.30;;;22.50;80.70;;;;;;5053798;28;20415;-76
2023/07/06 11:06:08;;;;;;;10.15;3.33;;;22.60;79.80;;;;;;5053715;28;20465;-77
2023/07/06 11:09:08;;;;;;;7.20;3.28;;;22.70;79.30;;;;;;5052492;28;20362;-76
2023/07/06 11:12:01;;;;;;;7.88;3.17;;;23.00;76.70;;;;;;5052429;28;20032;-76
2023/07/06 11:14:38;;;;;;;9.57;3.55;;;23.00;76.00;;;;;;5053344;28;20021;-76
2023/07/06 11:17:38;;;;;;;6.38;2.90;;;23.00;76.20;;;;;;5052374;28;20036;-76
2023/07/06 11:20:17;;;;;;;9.00;3.15;;;23.20;75.20;;;;;;5048232;28;20120;-76
2023/07/06 11:22:45;;;;;;;7.97;2.70;;;23.40;74.80;;;;;;5052407;28;20032;-77
2023/07/06 11:25:14;;;;;;;6.60;2.65;;;23.50;74.50;;;;;;5052121;28;20061;-78
2023/07/06 11:27:45;;;;;;;9.90;2.75;;;23.60;73.50;;;;;;5035708;28;20366;-78
2023/07/06 11:30:31;;;;;;;6.78;2.67;;;23.60;72.80;;;;;;5052155;28;20078;-78
2023/07/06 11:33:10;;;;;;;7.50;2.60;;;23.70;72.50;;;;;;5052097;28;20491;-76
2023/07/06 11:35:38;;;;;;;9.00;2.50;;;23.60;71.70;;;;;;5051897;28;20046;-77
2023/07/06 11:38:35;;;;;;;5.00;2.25;;;23.60;71.50;;;;;;5053482;28;20025;-77
2023/07/06 11:41:39;;;;;;;10.20;2.70;;;23.50;70.50;;;;;;5051931;28;20476;-76
2023/07/06 11:44:32;;;;;;;7.10;2.25;;;23.50;69.80;;;;;;5034667;28;20112;-77
2023/07/06 11:47:34;;;;;;;4.65;1.80;;;23.80;70.00;;;;;;5051045;28;20037;-78
2023/07/06 11:50:03;;;;;;;6.75;2.80;;;24.10;69.10;;;;;;5052963;28;20485;-78
2023/07/06 11:52:34;;;;;;;7.28;2.05;;;24.30;68.50;;;;;;5053557;28;20377;-77
2023/07/06 11:55:14;;;;;;;7.50;2.08;;;24.60;67.50;;;;;;5051641;28;20049;-78
2023/07/06 11:57:54;;;;;;;5.70;2.30;;;24.70;67.10;;;;;;5051989;28;20028;-78
2023/07/06 12:03:09;;;;;;;7.03;2.20;;;24.70;66.20;;;;;;5056661;28;20025;-77
2023/07/06 12:05:40;;;;;;;6.47;2.63;;;24.60;65.70;;;;;;5055843;28;20025;-77
2023/07/06 12:08:20;;;;;;;6.75;2.13;;;24.40;65.90;;;;;;5057044;28;20507;-78
2023/07/06 12:10:52;;;;;;;5.32;1.58;;;24.30;65.00;;;;;;5056975;28;20416;-77
2023/07/06 12:13:32;;;;;;;5.32;1.75;;;24.10;65.10;;;;;;5057193;28;20029;-76
2023/07/06 12:16:07;;;;;;;5.82;2.22;;;24.00;64.80;;;;;;5055711;28;20025;-76
2023/07/06 12:18:35;;;;;;;5.05;2.30;;;23.80;65.10;;;;;;5055758;28;20029;-76
2023/07/06 12:21:03;;;;;;;4.25;1.98;;;23.70;65.30;;;;;;5044515;28;20036;-77
2023/07/06 12:23:29;;;;;;;5.80;2.15;;;23.60;65.60;;;;;;5057034;28;20025;-77
2023/07/06 12:25:56;;;;;;;5.43;1.55;;;23.60;65.40;;;;;;5038610;28;20159;-76
2023/07/06 12:28:29;;;;;;;5.43;1.98;;;23.60;65.40;;;;;;5055403;28;20028;-77
2023/07/06 12:30:58;;;;;;;4.93;1.87;;;23.50;65.20;;;;;;5055417;28;20021;-77
2023/07/06 12:33:25;;;;;;;5.57;1.90;;;23.40;65.20;;;;;;5056343;28;20809;-77
2023/07/06 12:35:53;;;;;;;6.63;2.47;;;23.40;65.40;;;;;;5055288;28;20108;-77
2023/07/06 12:38:20;;;;;;;8.23;3.00;;;23.20;65.60;;;;;;5054699;28;20048;-76
2023/07/06 12:40:46;;;;;;;9.88;3.33;;;23.20;66.50;;;;;;5047284;28;20045;-77
2023/07/06 12:43:34;;;;;;;9.50;3.42;;;23.10;66.70;;;;;;5034903;28;20031;-74
2023/07/06 12:46:00;;;;;;;7.90;2.47;;;23.00;66.30;;;;;;5035124;28;20029;-76
2023/07/06 12:48:26;;;;;;;4.43;1.67;;;22.90;66.40;;;;;;5035650;28;20018;-75
2023/07/06 12:50:54;;;;;;;9.55;2.47;;;22.90;66.60;;;;;;5036237;28;20033;-75
2023/07/06 12:53:27;;;;;;;9.40;2.17;;;22.80;66.90;;;;;;5034988;28;20084;-77
2023/07/06 12:56:00;;;;;;;6.15;1.70;;;22.60;67.10;;;;;;5034574;28;20148;-74
2023/07/06 12:58:35;;;;;;;4.85;1.83;;;22.60;67.50;;;;;;5034633;28;20032;-74